sensor_id;sensor_type;location;lat;lon;timestamp;P1;durP1;ratioP1;P2;durP2;ratioP2
20076;SDS011;12348;42.710;23.378;2023-04-01T00:03:36;11.57;;;6.77;;
20076;SDS011;12348;42.710;23.378;2023-04-01T00:06:03;14.23;;;7.03;;
20076;SDS011;12348;42.710;23.378;2023-04-01T00:08:30;19.00;;;8.47;;
20076;SDS011;12348;42.710;23.378;2023-04-01T00:10:58;23.37;;;7.90;;
20076;SDS011;12348;42.710;23.378;2023-04-01T00:13:25;15.37;;;8.20;;
20076;SDS011;12348;42.710;23.378;2023-04-01T00:15:52;19.70;;;7.97;;
20076;SDS011;12348;42.710;23.378;2023-04-01T00:18:20;16.30;;;8.40;;
20076;SDS011;12348;42.710;23.378;2023-04-01T00:20:47;19.47;;;8.30;;
20076;SDS011;12348;42.710;23.378;2023-04-01T00:23:16;15.87;;;7.37;;
20076;SDS011;12348;42.710;23.378;2023-04-01T00:25:43;16.97;;;8.30;;
20076;SDS011;12348;42.710;23.378;2023-04-01T00:28:14;16.97;;;8.63;;
20076;SDS011;12348;42.710;23.378;2023-04-01T00:30:41;14.70;;;8.90;;
20076;SDS011;12348;42.710;23.378;2023-04-01T00:33:07;20.60;;;9.57;;
20076;SDS011;12348;42.710;23.378;2023-04-01T00:35:34;13.90;;;8.53;;
20076;SDS011;12348;42.710;23.378;2023-04-01T00:38:01;16.50;;;7.83;;
20076;SDS011;12348;42.710;23.378;2023-04-01T00:40:29;15.60;;;8.03;;
20076;SDS011;12348;42.710;23.378;2023-04-01T00:42:57;14.33;;;7.73;;
20076;SDS011;12348;42.710;23.378;2023-04-01T00:45:33;17.90;;;9.00;;
20076;SDS011;12348;42.710;23.378;2023-04-01T00:48:02;20.17;;;10.20;;
20076;SDS011;12348;42.710;23.378;2023-04-01T00:50:31;18.13;;;8.73;;
20076;SDS011;12348;42.710;23.378;2023-04-01T00:53:01;26.87;;;10.83;;
20076;SDS011;12348;42.710;23.378;2023-04-01T00:55:30;14.10;;;8.90;;
20076;SDS011;12348;42.710;23.378;2023-04-01T00:58:00;23.97;;;9.33;;
20076;SDS011;12348;42.710;23.378;2023-04-01T01:00:32;19.57;;;8.97;;
20076;SDS011;12348;42.710;23.378;2023-04-01T01:03:00;21.43;;;9.03;;
20076;SDS011;12348;42.710;23.378;2023-04-01T01:05:31;16.70;;;9.27;;
20076;SDS011;12348;42.710;23.378;2023-04-01T01:08:14;22.47;;;10.40;;
20076;SDS011;12348;42.710;23.378;2023-04-01T01:10:49;15.97;;;9.33;;
20076;SDS011;12348;42.710;23.378;2023-04-01T01:13:17;21.17;;;9.53;;
20076;SDS011;12348;42.710;23.378;2023-04-01T01:15:54;18.90;;;10.10;;
20076;SDS011;12348;42.710;23.378;2023-04-01T01:18:26;17.77;;;8.60;;
20076;SDS011;12348;42.710;23.378;2023-04-01T01:21:12;19.50;;;8.53;;
20076;SDS011;12348;42.710;23.378;2023-04-01T01:27:00;18.43;;;8.60;;
20076;SDS011;12348;42.710;23.378;2023-04-01T01:32:49;21.27;;;8.77;;
20076;SDS011;12348;42.710;23.378;2023-04-01T01:35:36;14.70;;;8.33;;
20076;SDS011;12348;42.710;23.378;2023-04-01T01:38:07;18.73;;;7.30;;
20076;SDS011;12348;42.710;23.378;2023-04-01T01:40:37;13.67;;;6.63;;
20076;SDS011;12348;42.710;23.378;2023-04-01T01:43:08;12.20;;;6.50;;
20076;SDS011;12348;42.710;23.378;2023-04-01T01:45:39;15.80;;;6.10;;
20076;SDS011;12348;42.710;23.378;2023-04-01T01:48:10;10.60;;;5.67;;
20076;SDS011;12348;42.710;23.378;2023-04-01T01:50:39;11.67;;;6.40;;
20076;SDS011;12348;42.710;23.378;2023-04-01T01:53:08;10.37;;;5.27;;
20076;SDS011;12348;42.710;23.378;2023-04-01T01:55:37;9.60;;;5.83;;
20076;SDS011;12348;42.710;23.378;2023-04-01T01:58:07;12.30;;;6.03;;
20076;SDS011;12348;42.710;23.378;2023-04-01T02:00:39;9.57;;;5.90;;
20076;SDS011;12348;42.710;23.378;2023-04-01T02:03:07;12.67;;;5.93;;
20076;SDS011;12348;42.710;23.378;2023-04-01T02:05:35;10.17;;;6.00;;
20076;SDS011;12348;42.710;23.378;2023-04-01T02:08:05;10.07;;;6.13;;
20076;SDS011;12348;42.710;23.378;2023-04-01T02:10:39;15.67;;;5.77;;
20076;SDS011;12348;42.710;23.378;2023-04-01T02:13:09;13.70;;;5.77;;
20076;SDS011;12348;42.710;23.378;2023-04-01T02:15:42;12.60;;;5.73;;
20076;SDS011;12348;42.710;23.378;2023-04-01T02:18:13;13.10;;;6.23;;
20076;SDS011;12348;42.710;23.378;2023-04-01T02:20:42;12.93;;;6.13;;
20076;SDS011;12348;42.710;23.378;2023-04-01T02:23:12;10.57;;;5.83;;
20076;SDS011;12348;42.710;23.378;2023-04-01T02:25:40;15.70;;;6.63;;
20076;SDS011;12348;42.710;23.378;2023-04-01T02:28:10;11.83;;;5.80;;
20076;SDS011;12348;42.710;23.378;2023-04-01T02:30:39;13.97;;;6.63;;
20076;SDS011;12348;42.710;23.378;2023-04-01T02:33:09;16.13;;;6.13;;
20076;SDS011;12348;42.710;23.378;2023-04-01T02:35:36;8.53;;;5.67;;
20076;SDS011;12348;42.710;23.378;2023-04-01T02:38:03;10.87;;;6.03;;
20076;SDS011;12348;42.710;23.378;2023-04-01T02:40:41;13.47;;;6.47;;
20076;SDS011;12348;42.710;23.378;2023-04-01T02:43:10;12.43;;;7.20;;
20076;SDS011;12348;42.710;23.378;2023-04-01T02:45:37;10.83;;;6.07;;
20076;SDS011;12348;42.710;23.378;2023-04-01T02:48:04;11.30;;;6.77;;
20076;SDS011;12348;42.710;23.378;2023-04-01T02:50:31;12.03;;;7.37;;
20076;SDS011;12348;42.710;23.378;2023-04-01T02:52:58;11.03;;;6.13;;
20076;SDS011;12348;42.710;23.378;2023-04-01T02:55:24;11.57;;;6.73;;
20076;SDS011;12348;42.710;23.378;2023-04-01T02:57:53;16.30;;;6.63;;
20076;SDS011;12348;42.710;23.378;2023-04-01T03:00:20;13.23;;;7.23;;
20076;SDS011;12348;42.710;23.378;2023-04-01T03:02:47;12.07;;;6.60;;
20076;SDS011;12348;42.710;23.378;2023-04-01T03:05:14;15.93;;;7.40;;
20076;SDS011;12348;42.710;23.378;2023-04-01T03:07:41;15.23;;;6.87;;
20076;SDS011;12348;42.710;23.378;2023-04-01T03:10:08;13.60;;;6.70;;
20076;SDS011;12348;42.710;23.378;2023-04-01T03:12:36;15.53;;;6.07;;
20076;SDS011;12348;42.710;23.378;2023-04-01T03:15:05;13.70;;;6.37;;
20076;SDS011;12348;42.710;23.378;2023-04-01T03:17:32;11.03;;;6.93;;
20076;SDS011;12348;42.710;23.378;2023-04-01T03:19:59;13.90;;;7.67;;
20076;SDS011;12348;42.710;23.378;2023-04-01T03:22:26;14.97;;;7.83;;
20076;SDS011;12348;42.710;23.378;2023-04-01T03:24:52;12.17;;;7.30;;
20076;SDS011;12348;42.710;23.378;2023-04-01T03:27:19;17.60;;;7.07;;
20076;SDS011;12348;42.710;23.378;2023-04-01T03:29:48;18.30;;;8.23;;
20076;SDS011;12348;42.710;23.378;2023-04-01T03:32:17;15.23;;;8.80;;
20076;SDS011;12348;42.710;23.378;2023-04-01T03:34:43;21.30;;;7.93;;
20076;SDS011;12348;42.710;23.378;2023-04-01T03:37:10;23.03;;;9.93;;
20076;SDS011;12348;42.710;23.378;2023-04-01T03:39:37;21.17;;;9.73;;
20076;SDS011;12348;42.710;23.378;2023-04-01T03:42:04;19.97;;;10.73;;
20076;SDS011;12348;42.710;23.378;2023-04-01T03:44:31;16.37;;;9.90;;
20076;SDS011;12348;42.710;23.378;2023-04-01T03:46:59;25.10;;;9.33;;
20076;SDS011;12348;42.710;23.378;2023-04-01T03:49:28;20.17;;;10.80;;
20076;SDS011;12348;42.710;23.378;2023-04-01T03:51:57;21.00;;;9.07;;
20076;SDS011;12348;42.710;23.378;2023-04-01T03:54:24;17.67;;;9.23;;
20076;SDS011;12348;42.710;23.378;2023-04-01T03:56:50;15.47;;;8.33;;
20076;SDS011;12348;42.710;23.378;2023-04-01T03:59:17;28.13;;;9.60;;
20076;SDS011;12348;42.710;23.378;2023-04-01T04:01:45;11.27;;;8.43;;
20076;SDS011;12348;42.710;23.378;2023-04-01T04:04:13;16.30;;;8.67;;
20076;SDS011;12348;42.710;23.378;2023-04-01T04:06:41;16.23;;;8.13;;
20076;SDS011;12348;42.710;23.378;2023-04-01T04:09:08;21.00;;;8.20;;
20076;SDS011;12348;42.710;23.378;2023-04-01T04:11:35;13.13;;;8.27;;
20076;SDS011;12348;42.710;23.378;2023-04-01T04:14:02;22.20;;;9.37;;
20076;SDS011;12348;42.710;23.378;2023-04-01T04:16:29;15.97;;;7.60;;
20076;SDS011;12348;42.710;23.378;2023-04-01T04:18:55;13.90;;;7.00;;
20076;SDS011;12348;42.710;23.378;2023-04-01T04:21:22;12.07;;;6.87;;
20076;SDS011;12348;42.710;23.378;2023-04-01T04:23:50;12.73;;;7.00;;
20076;SDS011;12348;42.710;23.378;2023-04-01T04:26:17;11.13;;;6.30;;
20076;SDS011;12348;42.710;23.378;2023-04-01T04:28:44;13.70;;;7.90;;
20076;SDS011;12348;42.710;23.378;2023-04-01T04:31:11;12.07;;;6.57;;
20076;SDS011;12348;42.710;23.378;2023-04-01T04:33:38;15.10;;;7.43;;
20076;SDS011;12348;42.710;23.378;2023-04-01T04:36:05;9.00;;;5.77;;
20076;SDS011;12348;42.710;23.378;2023-04-01T04:38:32;15.43;;;6.70;;
20076;SDS011;12348;42.710;23.378;2023-04-01T04:41:00;16.30;;;8.17;;
20076;SDS011;12348;42.710;23.378;2023-04-01T04:43:27;16.53;;;8.43;;
20076;SDS011;12348;42.710;23.378;2023-04-01T04:45:54;17.70;;;7.80;;
20076;SDS011;12348;42.710;23.378;2023-04-01T04:48:21;13.10;;;7.83;;
20076;SDS011;12348;42.710;23.378;2023-04-01T04:50:48;16.10;;;8.47;;
20076;SDS011;12348;42.710;23.378;2023-04-01T04:53:16;16.53;;;9.60;;
20076;SDS011;12348;42.710;23.378;2023-04-01T04:55:44;14.73;;;8.23;;
20076;SDS011;12348;42.710;23.378;2023-04-01T04:58:14;14.27;;;7.73;;
20076;SDS011;12348;42.710;23.378;2023-04-01T05:00:42;14.20;;;6.87;;
20076;SDS011;12348;42.710;23.378;2023-04-01T05:03:09;15.07;;;8.13;;
20076;SDS011;12348;42.710;23.378;2023-04-01T05:05:37;13.03;;;7.40;;
20076;SDS011;12348;42.710;23.378;2023-04-01T05:08:04;19.27;;;9.13;;
20076;SDS011;12348;42.710;23.378;2023-04-01T05:10:31;15.40;;;8.67;;
20076;SDS011;12348;42.710;23.378;2023-04-01T05:12:58;18.00;;;9.03;;
20076;SDS011;12348;42.710;23.378;2023-04-01T05:15:27;19.47;;;9.13;;
20076;SDS011;12348;42.710;23.378;2023-04-01T05:17:53;16.27;;;9.43;;
20076;SDS011;12348;42.710;23.378;2023-04-01T05:20:20;27.70;;;10.83;;
20076;SDS011;12348;42.710;23.378;2023-04-01T05:22:47;17.00;;;9.50;;
20076;SDS011;12348;42.710;23.378;2023-04-01T05:25:14;15.73;;;8.03;;
20076;SDS011;12348;42.710;23.378;2023-04-01T05:27:40;15.77;;;8.33;;
20076;SDS011;12348;42.710;23.378;2023-04-01T05:30:07;20.70;;;8.27;;
20076;SDS011;12348;42.710;23.378;2023-04-01T05:32:36;20.83;;;9.50;;
20076;SDS011;12348;42.710;23.378;2023-04-01T05:35:03;18.43;;;6.93;;
20076;SDS011;12348;42.710;23.378;2023-04-01T05:37:32;13.53;;;7.53;;
20076;SDS011;12348;42.710;23.378;2023-04-01T05:39:59;14.83;;;7.43;;
20076;SDS011;12348;42.710;23.378;2023-04-01T05:42:26;13.43;;;6.70;;
20076;SDS011;12348;42.710;23.378;2023-04-01T05:44:53;9.87;;;5.80;;
20076;SDS011;12348;42.710;23.378;2023-04-01T05:47:20;12.03;;;6.90;;
20076;SDS011;12348;42.710;23.378;2023-04-01T05:49:51;16.47;;;7.00;;
20076;SDS011;12348;42.710;23.378;2023-04-01T05:52:17;9.10;;;4.60;;
20076;SDS011;12348;42.710;23.378;2023-04-01T05:54:44;11.47;;;5.73;;
20076;SDS011;12348;42.710;23.378;2023-04-01T05:57:11;14.43;;;5.30;;
20076;SDS011;12348;42.710;23.378;2023-04-01T05:59:38;9.93;;;5.07;;
20076;SDS011;12348;42.710;23.378;2023-04-01T06:02:05;11.27;;;4.60;;
20076;SDS011;12348;42.710;23.378;2023-04-01T06:04:33;11.47;;;4.50;;
20076;SDS011;12348;42.710;23.378;2023-04-01T06:07:09;4.63;;;3.00;;
20076;SDS011;12348;42.710;23.378;2023-04-01T06:09:37;9.60;;;4.70;;
20076;SDS011;12348;42.710;23.378;2023-04-01T06:12:17;11.00;;;4.50;;
20076;SDS011;12348;42.710;23.378;2023-04-01T06:15:06;12.63;;;5.20;;
20076;SDS011;12348;42.710;23.378;2023-04-01T06:17:45;9.37;;;5.07;;
20076;SDS011;12348;42.710;23.378;2023-04-01T06:20:28;11.53;;;4.83;;
20076;SDS011;12348;42.710;23.378;2023-04-01T06:23:09;5.13;;;3.80;;
20076;SDS011;12348;42.710;23.378;2023-04-01T06:25:50;8.60;;;4.07;;
20076;SDS011;12348;42.710;23.378;2023-04-01T06:28:36;15.40;;;5.27;;
20076;SDS011;12348;42.710;23.378;2023-04-01T06:31:26;9.67;;;4.40;;
20076;SDS011;12348;42.710;23.378;2023-04-01T06:34:08;6.83;;;3.90;;
20076;SDS011;12348;42.710;23.378;2023-04-01T06:36:54;7.57;;;4.57;;
20076;SDS011;12348;42.710;23.378;2023-04-01T06:39:38;9.60;;;4.93;;
20076;SDS011;12348;42.710;23.378;2023-04-01T06:45:15;13.67;;;4.17;;
20076;SDS011;12348;42.710;23.378;2023-04-01T06:47:56;8.10;;;4.37;;
20076;SDS011;12348;42.710;23.378;2023-04-01T06:50:36;10.37;;;5.27;;
20076;SDS011;12348;42.710;23.378;2023-04-01T06:53:12;7.20;;;5.00;;
20076;SDS011;12348;42.710;23.378;2023-04-01T06:55:47;12.67;;;4.70;;
20076;SDS011;12348;42.710;23.378;2023-04-01T06:58:19;19.87;;;7.07;;
20076;SDS011;12348;42.710;23.378;2023-04-01T07:00:49;10.23;;;4.13;;
20076;SDS011;12348;42.710;23.378;2023-04-01T07:03:20;8.27;;;4.37;;
20076;SDS011;12348;42.710;23.378;2023-04-01T07:05:49;12.83;;;5.50;;
20076;SDS011;12348;42.710;23.378;2023-04-01T07:08:20;12.87;;;5.87;;
20076;SDS011;12348;42.710;23.378;2023-04-01T07:10:53;10.77;;;5.00;;
20076;SDS011;12348;42.710;23.378;2023-04-01T07:13:24;9.93;;;4.97;;
20076;SDS011;12348;42.710;23.378;2023-04-01T07:15:56;6.10;;;4.07;;
20076;SDS011;12348;42.710;23.378;2023-04-01T07:18:32;11.30;;;4.13;;
20076;SDS011;12348;42.710;23.378;2023-04-01T07:21:02;18.33;;;4.63;;
20076;SDS011;12348;42.710;23.378;2023-04-01T07:23:32;10.93;;;4.20;;
20076;SDS011;12348;42.710;23.378;2023-04-01T07:26:09;10.17;;;2.70;;
20076;SDS011;12348;42.710;23.378;2023-04-01T07:28:41;9.83;;;3.30;;
20076;SDS011;12348;42.710;23.378;2023-04-01T07:31:12;9.77;;;3.93;;
20076;SDS011;12348;42.710;23.378;2023-04-01T07:33:49;7.77;;;2.70;;
20076;SDS011;12348;42.710;23.378;2023-04-01T07:36:22;9.83;;;3.00;;
20076;SDS011;12348;42.710;23.378;2023-04-01T07:38:56;6.40;;;2.43;;
20076;SDS011;12348;42.710;23.378;2023-04-01T07:41:30;9.43;;;4.17;;
20076;SDS011;12348;42.710;23.378;2023-04-01T07:44:06;4.23;;;2.73;;
20076;SDS011;12348;42.710;23.378;2023-04-01T07:46:54;4.83;;;2.33;;
20076;SDS011;12348;42.710;23.378;2023-04-01T07:49:29;6.77;;;2.73;;
20076;SDS011;12348;42.710;23.378;2023-04-01T07:52:05;6.73;;;3.00;;
20076;SDS011;12348;42.710;23.378;2023-04-01T07:54:39;9.20;;;3.10;;
20076;SDS011;12348;42.710;23.378;2023-04-01T07:57:15;4.93;;;3.23;;
20076;SDS011;12348;42.710;23.378;2023-04-01T07:59:50;6.13;;;3.07;;
20076;SDS011;12348;42.710;23.378;2023-04-01T08:02:30;5.13;;;3.03;;
20076;SDS011;12348;42.710;23.378;2023-04-01T08:05:13;26.37;;;8.03;;
20076;SDS011;12348;42.710;23.378;2023-04-01T08:07:48;6.87;;;3.53;;
20076;SDS011;12348;42.710;23.378;2023-04-01T08:10:21;7.40;;;3.70;;
20076;SDS011;12348;42.710;23.378;2023-04-01T08:12:58;5.23;;;3.23;;
20076;SDS011;12348;42.710;23.378;2023-04-01T08:15:36;7.37;;;3.23;;
20076;SDS011;12348;42.710;23.378;2023-04-01T08:18:11;5.20;;;3.13;;
20076;SDS011;12348;42.710;23.378;2023-04-01T08:20:48;9.23;;;2.67;;
20076;SDS011;12348;42.710;23.378;2023-04-01T08:23:19;3.40;;;2.30;;
20076;SDS011;12348;42.710;23.378;2023-04-01T08:26:00;6.33;;;2.53;;
20076;SDS011;12348;42.710;23.378;2023-04-01T08:28:34;3.40;;;2.20;;
20076;SDS011;12348;42.710;23.378;2023-04-01T08:31:06;4.57;;;2.73;;
20076;SDS011;12348;42.710;23.378;2023-04-01T08:33:36;6.43;;;2.40;;
20076;SDS011;12348;42.710;23.378;2023-04-01T08:36:07;4.63;;;2.37;;
20076;SDS011;12348;42.710;23.378;2023-04-01T08:38:38;13.33;;;3.10;;
20076;SDS011;12348;42.710;23.378;2023-04-01T08:41:20;5.73;;;2.70;;
20076;SDS011;12348;42.710;23.378;2023-04-01T08:44:17;4.77;;;2.80;;
20076;SDS011;12348;42.710;23.378;2023-04-01T08:47:03;3.43;;;2.50;;
20076;SDS011;12348;42.710;23.378;2023-04-01T08:52:54;5.10;;;2.33;;
20076;SDS011;12348;42.710;23.378;2023-04-01T08:58:33;6.30;;;2.63;;
20076;SDS011;12348;42.710;23.378;2023-04-01T09:01:20;6.73;;;2.53;;
20076;SDS011;12348;42.710;23.378;2023-04-01T09:04:11;5.53;;;3.07;;
20076;SDS011;12348;42.710;23.378;2023-04-01T09:06:51;4.63;;;2.63;;
20076;SDS011;12348;42.710;23.378;2023-04-01T09:12:32;5.17;;;2.13;;
20076;SDS011;12348;42.710;23.378;2023-04-01T09:15:23;10.77;;;2.50;;
20076;SDS011;12348;42.710;23.378;2023-04-01T09:18:16;5.63;;;2.50;;
20076;SDS011;12348;42.710;23.378;2023-04-01T09:21:04;5.97;;;2.33;;
20076;SDS011;12348;42.710;23.378;2023-04-01T09:23:43;5.87;;;2.80;;
20076;SDS011;12348;42.710;23.378;2023-04-01T09:26:44;5.33;;;2.77;;
20076;SDS011;12348;42.710;23.378;2023-04-01T09:29:33;3.20;;;1.87;;
20076;SDS011;12348;42.710;23.378;2023-04-01T09:32:29;5.63;;;3.20;;
20076;SDS011;12348;42.710;23.378;2023-04-01T09:35:21;10.47;;;2.87;;
20076;SDS011;12348;42.710;23.378;2023-04-01T09:38:11;5.70;;;2.00;;
20076;SDS011;12348;42.710;23.378;2023-04-01T09:40:50;11.90;;;2.27;;
20076;SDS011;12348;42.710;23.378;2023-04-01T09:43:28;10.73;;;3.33;;
20076;SDS011;12348;42.710;23.378;2023-04-01T09:46:05;7.20;;;3.83;;
20076;SDS011;12348;42.710;23.378;2023-04-01T09:48:46;4.50;;;2.60;;
20076;SDS011;12348;42.710;23.378;2023-04-01T09:51:33;4.47;;;2.30;;
20076;SDS011;12348;42.710;23.378;2023-04-01T09:54:10;14.53;;;4.37;;
20076;SDS011;12348;42.710;23.378;2023-04-01T10:03:13;5.27;;;2.70;;
20076;SDS011;12348;42.710;23.378;2023-04-01T10:09:09;5.90;;;3.40;;
20076;SDS011;12348;42.710;23.378;2023-04-01T10:12:21;5.90;;;2.47;;
20076;SDS011;12348;42.710;23.378;2023-04-01T10:21:17;4.90;;;2.40;;
20076;SDS011;12348;42.710;23.378;2023-04-01T10:39:27;4.70;;;3.10;;
20076;SDS011;12348;42.710;23.378;2023-04-01T10:42:28;7.43;;;3.07;;
20076;SDS011;12348;42.710;23.378;2023-04-01T10:54:48;4.83;;;2.60;;
20076;SDS011;12348;42.710;23.378;2023-04-01T10:57:32;6.60;;;2.63;;
20076;SDS011;12348;42.710;23.378;2023-04-01T11:03:32;13.93;;;3.53;;
20076;SDS011;12348;42.710;23.378;2023-04-01T11:12:34;7.53;;;3.07;;
20076;SDS011;12348;42.710;23.378;2023-04-01T11:15:41;6.27;;;3.17;;
20076;SDS011;12348;42.710;23.378;2023-04-01T11:21:49;5.37;;;2.70;;
20076;SDS011;12348;42.710;23.378;2023-04-01T11:24:42;10.47;;;3.13;;
20076;SDS011;12348;42.710;23.378;2023-04-01T11:27:33;4.40;;;2.30;;
20076;SDS011;12348;42.710;23.378;2023-04-01T11:30:20;8.87;;;2.93;;
20076;SDS011;12348;42.710;23.378;2023-04-01T11:32:57;8.17;;;2.90;;
20076;SDS011;12348;42.710;23.378;2023-04-01T11:35:40;10.90;;;2.87;;
20076;SDS011;12348;42.710;23.378;2023-04-01T11:38:19;6.03;;;3.23;;
20076;SDS011;12348;42.710;23.378;2023-04-01T11:40:56;6.63;;;3.10;;
20076;SDS011;12348;42.710;23.378;2023-04-01T11:43:28;5.93;;;3.73;;
20076;SDS011;12348;42.710;23.378;2023-04-01T11:46:02;4.23;;;2.70;;
20076;SDS011;12348;42.710;23.378;2023-04-01T11:48:50;4.70;;;2.30;;
20076;SDS011;12348;42.710;23.378;2023-04-01T11:54:35;7.00;;;2.00;;
20076;SDS011;12348;42.710;23.378;2023-04-01T11:57:17;8.67;;;2.67;;
20076;SDS011;12348;42.710;23.378;2023-04-01T12:03:21;13.10;;;2.67;;
20076;SDS011;12348;42.710;23.378;2023-04-01T12:06:05;9.10;;;2.13;;
20076;SDS011;12348;42.710;23.378;2023-04-01T12:08:44;6.30;;;2.90;;
20076;SDS011;12348;42.710;23.378;2023-04-01T12:11:20;6.70;;;3.73;;
20076;SDS011;12348;42.710;23.378;2023-04-01T12:13:57;11.00;;;3.77;;
20076;SDS011;12348;42.710;23.378;2023-04-01T12:16:36;6.77;;;3.60;;
20076;SDS011;12348;42.710;23.378;2023-04-01T12:19:11;8.57;;;3.83;;
20076;SDS011;12348;42.710;23.378;2023-04-01T12:21:49;13.80;;;2.93;;
20076;SDS011;12348;42.710;23.378;2023-04-01T12:24:40;4.03;;;2.63;;
20076;SDS011;12348;42.710;23.378;2023-04-01T12:27:14;4.33;;;2.90;;
20076;SDS011;12348;42.710;23.378;2023-04-01T12:32:57;11.20;;;3.20;;
20076;SDS011;12348;42.710;23.378;2023-04-01T12:35:41;7.77;;;3.03;;
20076;SDS011;12348;42.710;23.378;2023-04-01T12:38:17;11.93;;;3.30;;
20076;SDS011;12348;42.710;23.378;2023-04-01T12:40:51;9.93;;;3.43;;
20076;SDS011;12348;42.710;23.378;2023-04-01T12:46:38;7.37;;;3.33;;
20076;SDS011;12348;42.710;23.378;2023-04-01T12:49:34;9.40;;;3.20;;
20076;SDS011;12348;42.710;23.378;2023-04-01T12:52:15;5.03;;;2.70;;
20076;SDS011;12348;42.710;23.378;2023-04-01T12:57:49;4.23;;;2.63;;
20076;SDS011;12348;42.710;23.378;2023-04-01T13:03:32;5.33;;;2.57;;
20076;SDS011;12348;42.710;23.378;2023-04-01T13:09:12;7.07;;;3.23;;
20076;SDS011;12348;42.710;23.378;2023-04-01T13:11:54;4.27;;;3.53;;
20076;SDS011;12348;42.710;23.378;2023-04-01T13:14:50;6.93;;;3.27;;
20076;SDS011;12348;42.710;23.378;2023-04-01T13:17:32;7.93;;;3.40;;
20076;SDS011;12348;42.710;23.378;2023-04-01T13:20:07;10.87;;;4.30;;
20076;SDS011;12348;42.710;23.378;2023-04-01T13:22:45;5.00;;;3.07;;
20076;SDS011;12348;42.710;23.378;2023-04-01T13:25:26;6.77;;;4.03;;
20076;SDS011;12348;42.710;23.378;2023-04-01T13:28:04;9.47;;;4.20;;
20076;SDS011;12348;42.710;23.378;2023-04-01T13:30:38;8.93;;;4.00;;
20076;SDS011;12348;42.710;23.378;2023-04-01T13:33:13;9.50;;;3.50;;
20076;SDS011;12348;42.710;23.378;2023-04-01T13:35:50;5.87;;;3.23;;
20076;SDS011;12348;42.710;23.378;2023-04-01T13:38:41;5.30;;;3.00;;
20076;SDS011;12348;42.710;23.378;2023-04-01T13:41:29;7.87;;;2.80;;
20076;SDS011;12348;42.710;23.378;2023-04-01T13:44:09;3.53;;;2.27;;
20076;SDS011;12348;42.710;23.378;2023-04-01T13:53:04;6.27;;;2.53;;
20076;SDS011;12348;42.710;23.378;2023-04-01T13:55:47;5.63;;;2.63;;
20076;SDS011;12348;42.710;23.378;2023-04-01T13:58:27;5.67;;;3.50;;
20076;SDS011;12348;42.710;23.378;2023-04-01T14:01:10;3.73;;;2.30;;
20076;SDS011;12348;42.710;23.378;2023-04-01T14:03:50;4.13;;;2.50;;
20076;SDS011;12348;42.710;23.378;2023-04-01T14:06:34;4.80;;;3.13;;
20076;SDS011;12348;42.710;23.378;2023-04-01T14:12:13;3.13;;;2.53;;
20076;SDS011;12348;42.710;23.378;2023-04-01T14:14:59;5.90;;;2.33;;
20076;SDS011;12348;42.710;23.378;2023-04-01T14:17:38;5.60;;;3.23;;
20076;SDS011;12348;42.710;23.378;2023-04-01T14:20:26;6.20;;;3.23;;
20076;SDS011;12348;42.710;23.378;2023-04-01T14:23:07;6.30;;;2.70;;
20076;SDS011;12348;42.710;23.378;2023-04-01T14:25:48;5.80;;;2.40;;
20076;SDS011;12348;42.710;23.378;2023-04-01T14:28:31;5.40;;;2.63;;
20076;SDS011;12348;42.710;23.378;2023-04-01T14:31:17;7.93;;;3.57;;
20076;SDS011;12348;42.710;23.378;2023-04-01T14:33:57;6.50;;;3.43;;
20076;SDS011;12348;42.710;23.378;2023-04-01T14:36:35;3.93;;;3.40;;
20076;SDS011;12348;42.710;23.378;2023-04-01T14:39:32;4.13;;;2.27;;
20076;SDS011;12348;42.710;23.378;2023-04-01T14:42:16;5.47;;;2.57;;
20076;SDS011;12348;42.710;23.378;2023-04-01T14:44:57;7.67;;;2.70;;
20076;SDS011;12348;42.710;23.378;2023-04-01T14:47:47;3.30;;;2.30;;
20076;SDS011;12348;42.710;23.378;2023-04-01T14:50:18;2.97;;;2.10;;
20076;SDS011;12348;42.710;23.378;2023-04-01T14:52:50;2.53;;;1.90;;
20076;SDS011;12348;42.710;23.378;2023-04-01T14:55:32;4.50;;;2.03;;
20076;SDS011;12348;42.710;23.378;2023-04-01T14:58:11;5.43;;;2.53;;
20076;SDS011;12348;42.710;23.378;2023-04-01T15:00:41;5.43;;;3.07;;
20076;SDS011;12348;42.710;23.378;2023-04-01T15:03:17;3.47;;;2.37;;
20076;SDS011;12348;42.710;23.378;2023-04-01T15:05:49;4.13;;;2.37;;
20076;SDS011;12348;42.710;23.378;2023-04-01T15:08:21;5.73;;;2.70;;
20076;SDS011;12348;42.710;23.378;2023-04-01T15:11:10;3.87;;;2.37;;
20076;SDS011;12348;42.710;23.378;2023-04-01T15:13:57;3.67;;;2.20;;
20076;SDS011;12348;42.710;23.378;2023-04-01T15:16:45;5.90;;;2.47;;
20076;SDS011;12348;42.710;23.378;2023-04-01T15:19:27;6.43;;;2.90;;
20076;SDS011;12348;42.710;23.378;2023-04-01T15:22:06;3.60;;;2.30;;
20076;SDS011;12348;42.710;23.378;2023-04-01T15:25:00;5.17;;;2.60;;
20076;SDS011;12348;42.710;23.378;2023-04-01T15:27:40;7.37;;;2.60;;
20076;SDS011;12348;42.710;23.378;2023-04-01T15:30:17;7.00;;;2.67;;
20076;SDS011;12348;42.710;23.378;2023-04-01T15:33:01;8.03;;;3.40;;
20076;SDS011;12348;42.710;23.378;2023-04-01T15:36:02;8.70;;;3.20;;
20076;SDS011;12348;42.710;23.378;2023-04-01T15:38:40;7.93;;;2.67;;
20076;SDS011;12348;42.710;23.378;2023-04-01T15:41:15;4.23;;;3.00;;
20076;SDS011;12348;42.710;23.378;2023-04-01T15:43:44;5.47;;;2.53;;
20076;SDS011;12348;42.710;23.378;2023-04-01T15:46:25;4.83;;;2.90;;
20076;SDS011;12348;42.710;23.378;2023-04-01T15:49:09;8.50;;;3.60;;
20076;SDS011;12348;42.710;23.378;2023-04-01T15:51:49;8.17;;;3.37;;
20076;SDS011;12348;42.710;23.378;2023-04-01T15:57:33;4.20;;;1.50;;
20076;SDS011;12348;42.710;23.378;2023-04-01T16:00:17;1.77;;;1.50;;
20076;SDS011;12348;42.710;23.378;2023-04-01T16:02:53;3.07;;;1.87;;
20076;SDS011;12348;42.710;23.378;2023-04-01T16:05:37;2.03;;;1.83;;
20076;SDS011;12348;42.710;23.378;2023-04-01T16:08:19;2.27;;;2.07;;
20076;SDS011;12348;42.710;23.378;2023-04-01T16:11:06;4.93;;;3.10;;
20076;SDS011;12348;42.710;23.378;2023-04-01T16:13:46;3.50;;;2.33;;
20076;SDS011;12348;42.710;23.378;2023-04-01T16:16:25;4.83;;;3.33;;
20076;SDS011;12348;42.710;23.378;2023-04-01T16:19:12;4.17;;;3.23;;
20076;SDS011;12348;42.710;23.378;2023-04-01T16:21:50;10.40;;;3.63;;
20076;SDS011;12348;42.710;23.378;2023-04-01T16:24:22;4.20;;;2.90;;
20076;SDS011;12348;42.710;23.378;2023-04-01T16:26:57;5.17;;;3.73;;
20076;SDS011;12348;42.710;23.378;2023-04-01T16:29:31;6.70;;;4.37;;
20076;SDS011;12348;42.710;23.378;2023-04-01T16:35:03;5.03;;;3.27;;
20076;SDS011;12348;42.710;23.378;2023-04-01T16:37:43;7.50;;;3.77;;
20076;SDS011;12348;42.710;23.378;2023-04-01T16:40:24;5.70;;;3.60;;
20076;SDS011;12348;42.710;23.378;2023-04-01T16:43:05;4.73;;;3.47;;
20076;SDS011;12348;42.710;23.378;2023-04-01T16:45:38;5.50;;;3.47;;
20076;SDS011;12348;42.710;23.378;2023-04-01T16:48:11;2.73;;;2.10;;
20076;SDS011;12348;42.710;23.378;2023-04-01T16:50:42;3.70;;;2.77;;
20076;SDS011;12348;42.710;23.378;2023-04-01T16:53:17;4.60;;;2.83;;
20076;SDS011;12348;42.710;23.378;2023-04-01T16:55:50;3.97;;;2.87;;
20076;SDS011;12348;42.710;23.378;2023-04-01T16:58:26;4.40;;;2.80;;
20076;SDS011;12348;42.710;23.378;2023-04-01T17:01:00;3.33;;;2.50;;
20076;SDS011;12348;42.710;23.378;2023-04-01T17:03:32;3.27;;;2.27;;
20076;SDS011;12348;42.710;23.378;2023-04-01T17:06:07;3.33;;;2.47;;
20076;SDS011;12348;42.710;23.378;2023-04-01T17:08:49;3.43;;;2.60;;